SGF weather

Springfield Branson National Airport
Springfield, Missouri, United States

Public forecast

Using degrees Fahrenheit for public forecast. Weather courtesy of forecast.io.

METAR (pilot weather report)

Retrieved 2019/08/17 11:52 UTC (52 minutes ago):

KSGF 171152Z 16008KT 10SM CLR 22/20 A2994 RMK AO2 SLP126 70035 T02220200 10233 20222 52013

TAF (pilot weather forecast)

Retrieved 2019/08/17 12:22 UTC (22 minutes ago):

TAF KSGF 171120Z 1712/1812 16011KT P6SM SCT150 FM171400 18011G21KT P6SM BKN250 FM180600 16012KT P6SM BKN250 WS020/21040KT